sensor_id;sensor_type;location;lat;lon;timestamp;P1;durP1;ratioP1;P2;durP2;ratioP2
34453;SDS011;60061;52.080;5.312;2022-08-19T00:01:21;5.0;;;3.6;;
34453;SDS011;60061;52.080;5.312;2022-08-19T00:02:59;4.1;;;3.8;;
34453;SDS011;60061;52.080;5.312;2022-08-19T00:04:36;4.91;;;4.1;;
34453;SDS011;60061;52.080;5.312;2022-08-19T00:07:49;5.2;;;4.2;;
34453;SDS011;60061;52.080;5.312;2022-08-19T00:09:27;5.2;;;4.2;;
34453;SDS011;60061;52.080;5.312;2022-08-19T00:11:03;6.6;;;4.1;;
34453;SDS011;60061;52.080;5.312;2022-08-19T00:14:18;4.61;;;3.9;;
34453;SDS011;60061;52.080;5.312;2022-08-19T00:15:55;5.3;;;4.3;;
34453;SDS011;60061;52.080;5.312;2022-08-19T00:17:31;5.3;;;3.9;;
34453;SDS011;60061;52.080;5.312;2022-08-19T00:19:07;6.8;;;4.7;;
34453;SDS011;60061;52.080;5.312;2022-08-19T00:22:20;4.8;;;3.7;;
34453;SDS011;60061;52.080;5.312;2022-08-19T00:23:58;4.5;;;3.9;;
34453;SDS011;60061;52.080;5.312;2022-08-19T00:25:36;5.3;;;4.1;;
34453;SDS011;60061;52.080;5.312;2022-08-19T00:28:49;5.8;;;4.41;;
34453;SDS011;60061;52.080;5.312;2022-08-19T00:30:27;6.1;;;4.0;;
34453;SDS011;60061;52.080;5.312;2022-08-19T00:32:04;4.5;;;3.8;;
34453;SDS011;60061;52.080;5.312;2022-08-19T00:35:18;4.91;;;3.8;;
34453;SDS011;60061;52.080;5.312;2022-08-19T00:36:54;6.7;;;4.41;;
34453;SDS011;60061;52.080;5.312;2022-08-19T00:38:32;4.41;;;4.0;;
34453;SDS011;60061;52.080;5.312;2022-08-19T00:40:11;6.1;;;4.3;;
34453;SDS011;60061;52.080;5.312;2022-08-19T00:43:27;4.3;;;3.8;;
34453;SDS011;60061;52.080;5.312;2022-08-19T00:45:05;4.3;;;3.8;;
34453;SDS011;60061;52.080;5.312;2022-08-19T00:46:48;6.8;;;4.0;;
34453;SDS011;60061;52.080;5.312;2022-08-19T00:48:26;7.5;;;4.2;;
34453;SDS011;60061;52.080;5.312;2022-08-19T00:51:41;4.7;;;4.2;;
34453;SDS011;60061;52.080;5.312;2022-08-19T00:53:21;5.5;;;4.3;;
34453;SDS011;60061;52.080;5.312;2022-08-19T00:55:04;7.1;;;4.2;;
34453;SDS011;60061;52.080;5.312;2022-08-19T00:58:22;5.0;;;4.0;;
34453;SDS011;60061;52.080;5.312;2022-08-19T01:00:06;4.91;;;3.9;;
34453;SDS011;60061;52.080;5.312;2022-08-19T01:01:46;5.4;;;4.5;;
34453;SDS011;60061;52.080;5.312;2022-08-19T01:03:22;6.0;;;4.41;;
34453;SDS011;60061;52.080;5.312;2022-08-19T01:06:40;6.1;;;4.2;;
34453;SDS011;60061;52.080;5.312;2022-08-19T01:08:17;4.5;;;4.0;;
34453;SDS011;60061;52.080;5.312;2022-08-19T01:09:55;6.7;;;4.0;;
34453;SDS011;60061;52.080;5.312;2022-08-19T01:11:33;4.41;;;3.8;;
34453;SDS011;60061;52.080;5.312;2022-08-19T01:14:59;6.0;;;3.9;;
34453;SDS011;60061;52.080;5.312;2022-08-19T01:16:35;4.1;;;3.6;;
34453;SDS011;60061;52.080;5.312;2022-08-19T01:18:15;5.11;;;3.7;;
34453;SDS011;60061;52.080;5.312;2022-08-19T01:19:54;4.7;;;4.1;;
34453;SDS011;60061;52.080;5.312;2022-08-19T01:23:20;4.61;;;4.2;;
34453;SDS011;60061;52.080;5.312;2022-08-19T01:24:56;4.8;;;4.2;;
34453;SDS011;60061;52.080;5.312;2022-08-19T01:26:37;7.5;;;4.1;;
34453;SDS011;60061;52.080;5.312;2022-08-19T01:28:17;5.3;;;4.0;;
34453;SDS011;60061;52.080;5.312;2022-08-19T01:31:31;4.8;;;3.7;;
34453;SDS011;60061;52.080;5.312;2022-08-19T01:33:07;6.5;;;4.3;;
34453;SDS011;60061;52.080;5.312;2022-08-19T01:34:46;5.2;;;3.9;;
34453;SDS011;60061;52.080;5.312;2022-08-19T01:38:08;4.91;;;4.0;;
34453;SDS011;60061;52.080;5.312;2022-08-19T01:39:46;6.1;;;4.0;;
34453;SDS011;60061;52.080;5.312;2022-08-19T01:41:23;4.61;;;3.7;;
34453;SDS011;60061;52.080;5.312;2022-08-19T01:43:00;4.7;;;3.9;;
34453;SDS011;60061;52.080;5.312;2022-08-19T01:46:15;4.3;;;3.5;;
34453;SDS011;60061;52.080;5.312;2022-08-19T01:47:51;4.2;;;3.5;;
34453;SDS011;60061;52.080;5.312;2022-08-19T01:49:29;7.2;;;3.5;;
34453;SDS011;60061;52.080;5.312;2022-08-19T01:52:45;6.0;;;3.7;;
34453;SDS011;60061;52.080;5.312;2022-08-19T01:54:23;4.1;;;3.5;;
34453;SDS011;60061;52.080;5.312;2022-08-19T01:56:00;4.3;;;3.8;;
34453;SDS011;60061;52.080;5.312;2022-08-19T01:57:39;4.91;;;3.9;;
34453;SDS011;60061;52.080;5.312;2022-08-19T02:01:00;5.2;;;3.9;;
34453;SDS011;60061;52.080;5.312;2022-08-19T02:02:36;5.0;;;3.6;;
34453;SDS011;60061;52.080;5.312;2022-08-19T02:04:12;4.61;;;3.4;;
34453;SDS011;60061;52.080;5.312;2022-08-19T02:05:53;4.5;;;3.5;;
34453;SDS011;60061;52.080;5.312;2022-08-19T02:09:08;5.3;;;3.6;;
34453;SDS011;60061;52.080;5.312;2022-08-19T02:10:46;5.6;;;3.6;;
34453;SDS011;60061;52.080;5.312;2022-08-19T02:12:22;6.1;;;4.1;;
34453;SDS011;60061;52.080;5.312;2022-08-19T02:15:36;5.3;;;3.8;;
34453;SDS011;60061;52.080;5.312;2022-08-19T02:17:13;6.0;;;3.6;;
34453;SDS011;60061;52.080;5.312;2022-08-19T02:18:50;4.5;;;3.8;;
34453;SDS011;60061;52.080;5.312;2022-08-19T02:20:26;4.41;;;3.7;;
34453;SDS011;60061;52.080;5.312;2022-08-19T02:23:40;5.9;;;3.7;;
34453;SDS011;60061;52.080;5.312;2022-08-19T02:25:16;6.1;;;3.7;;
34453;SDS011;60061;52.080;5.312;2022-08-19T02:26:52;6.0;;;3.7;;
34453;SDS011;60061;52.080;5.312;2022-08-19T02:30:07;4.3;;;3.9;;
34453;SDS011;60061;52.080;5.312;2022-08-19T02:31:47;3.9;;;3.5;;
34453;SDS011;60061;52.080;5.312;2022-08-19T02:33:23;7.7;;;3.9;;
34453;SDS011;60061;52.080;5.312;2022-08-19T02:36:36;5.9;;;3.9;;
34453;SDS011;60061;52.080;5.312;2022-08-19T02:38:29;5.3;;;3.9;;
34453;SDS011;60061;52.080;5.312;2022-08-19T02:40:06;5.3;;;3.9;;
34453;SDS011;60061;52.080;5.312;2022-08-19T02:41:44;5.6;;;4.0;;
34453;SDS011;60061;52.080;5.312;2022-08-19T02:44:58;4.41;;;3.7;;
34453;SDS011;60061;52.080;5.312;2022-08-19T02:46:34;4.1;;;3.4;;
34453;SDS011;60061;52.080;5.312;2022-08-19T02:48:11;4.1;;;3.7;;
34453;SDS011;60061;52.080;5.312;2022-08-19T02:49:49;4.5;;;3.8;;
34453;SDS011;60061;52.080;5.312;2022-08-19T02:53:08;4.3;;;3.5;;
34453;SDS011;60061;52.080;5.312;2022-08-19T02:54:45;5.2;;;3.6;;
34453;SDS011;60061;52.080;5.312;2022-08-19T02:56:22;6.2;;;3.9;;
34453;SDS011;60061;52.080;5.312;2022-08-19T02:59:36;4.3;;;3.7;;
34453;SDS011;60061;52.080;5.312;2022-08-19T03:01:20;6.1;;;3.9;;
34453;SDS011;60061;52.080;5.312;2022-08-19T03:02:57;5.3;;;4.1;;
34453;SDS011;60061;52.080;5.312;2022-08-19T03:04:33;5.2;;;4.5;;
34453;SDS011;60061;52.080;5.312;2022-08-19T03:07:49;5.8;;;4.61;;
34453;SDS011;60061;52.080;5.312;2022-08-19T03:09:27;6.2;;;4.5;;
34453;SDS011;60061;52.080;5.312;2022-08-19T03:11:03;4.91;;;4.41;;
34453;SDS011;60061;52.080;5.312;2022-08-19T03:14:18;7.2;;;4.5;;
34453;SDS011;60061;52.080;5.312;2022-08-19T03:15:54;6.2;;;4.61;;
34453;SDS011;60061;52.080;5.312;2022-08-19T03:17:30;7.6;;;4.8;;
34453;SDS011;60061;52.080;5.312;2022-08-19T03:19:06;5.2;;;4.61;;
34453;SDS011;60061;52.080;5.312;2022-08-19T03:22:21;5.5;;;4.7;;
34453;SDS011;60061;52.080;5.312;2022-08-19T03:23:59;5.4;;;4.5;;
34453;SDS011;60061;52.080;5.312;2022-08-19T03:25:46;7.4;;;4.61;;
34453;SDS011;60061;52.080;5.312;2022-08-19T03:27:24;7.0;;;4.91;;
34453;SDS011;60061;52.080;5.312;2022-08-19T03:30:41;6.5;;;4.61;;
34453;SDS011;60061;52.080;5.312;2022-08-19T03:32:19;5.11;;;4.61;;
34453;SDS011;60061;52.080;5.312;2022-08-19T03:33:55;5.5;;;4.2;;
34453;SDS011;60061;52.080;5.312;2022-08-19T03:37:08;5.4;;;4.3;;
34453;SDS011;60061;52.080;5.312;2022-08-19T03:38:49;6.5;;;4.7;;
34453;SDS011;60061;52.080;5.312;2022-08-19T03:40:30;5.9;;;4.61;;
34453;SDS011;60061;52.080;5.312;2022-08-19T03:42:06;6.3;;;4.5;;
34453;SDS011;60061;52.080;5.312;2022-08-19T03:45:23;6.7;;;4.7;;
34453;SDS011;60061;52.080;5.312;2022-08-19T03:47:00;5.8;;;4.41;;
34453;SDS011;60061;52.080;5.312;2022-08-19T03:48:37;5.4;;;4.3;;
34453;SDS011;60061;52.080;5.312;2022-08-19T03:51:52;6.0;;;4.5;;
34453;SDS011;60061;52.080;5.312;2022-08-19T03:53:30;8.0;;;4.41;;
34453;SDS011;60061;52.080;5.312;2022-08-19T03:55:08;6.7;;;4.3;;
34453;SDS011;60061;52.080;5.312;2022-08-19T03:56:45;8.0;;;5.6;;
34453;SDS011;60061;52.080;5.312;2022-08-19T04:00:05;6.7;;;5.2;;
34453;SDS011;60061;52.080;5.312;2022-08-19T04:01:42;8.5;;;5.2;;
34453;SDS011;60061;52.080;5.312;2022-08-19T04:03:19;8.6;;;5.0;;
34453;SDS011;60061;52.080;5.312;2022-08-19T04:06:32;5.8;;;4.91;;
34453;SDS011;60061;52.080;5.312;2022-08-19T04:08:11;5.8;;;4.8;;
34453;SDS011;60061;52.080;5.312;2022-08-19T04:09:47;8.5;;;4.8;;
34453;SDS011;60061;52.080;5.312;2022-08-19T04:11:24;6.2;;;4.8;;
34453;SDS011;60061;52.080;5.312;2022-08-19T04:14:41;5.2;;;4.5;;
34453;SDS011;60061;52.080;5.312;2022-08-19T04:16:17;5.9;;;4.2;;
34453;SDS011;60061;52.080;5.312;2022-08-19T04:17:56;5.0;;;4.2;;
34453;SDS011;60061;52.080;5.312;2022-08-19T04:21:14;6.5;;;4.3;;
34453;SDS011;60061;52.080;5.312;2022-08-19T04:22:52;7.1;;;3.9;;
34453;SDS011;60061;52.080;5.312;2022-08-19T04:24:29;5.9;;;4.41;;
34453;SDS011;60061;52.080;5.312;2022-08-19T04:26:06;6.6;;;4.7;;
34453;SDS011;60061;52.080;5.312;2022-08-19T04:29:25;7.5;;;4.8;;
34453;SDS011;60061;52.080;5.312;2022-08-19T04:31:01;5.9;;;4.61;;
34453;SDS011;60061;52.080;5.312;2022-08-19T04:32:39;5.4;;;4.7;;
34453;SDS011;60061;52.080;5.312;2022-08-19T04:35:58;7.7;;;4.91;;
34453;SDS011;60061;52.080;5.312;2022-08-19T04:37:34;6.1;;;4.8;;
34453;SDS011;60061;52.080;5.312;2022-08-19T04:39:12;6.8;;;5.11;;
34453;SDS011;60061;52.080;5.312;2022-08-19T04:43:48;7.8;;;4.5;;
34453;SDS011;60061;52.080;5.312;2022-08-19T04:45:24;8.6;;;6.0;;
34453;SDS011;60061;52.080;5.312;2022-08-19T04:47:00;8.31;;;6.2;;
34453;SDS011;60061;52.080;5.312;2022-08-19T04:50:15;8.81;;;5.6;;
34453;SDS011;60061;52.080;5.312;2022-08-19T04:51:54;8.2;;;5.9;;
34453;SDS011;60061;52.080;5.312;2022-08-19T04:53:31;7.6;;;5.4;;
34453;SDS011;60061;52.080;5.312;2022-08-19T04:56:49;7.3;;;5.4;;
34453;SDS011;60061;52.080;5.312;2022-08-19T04:58:27;9.6;;;5.3;;
34453;SDS011;60061;52.080;5.312;2022-08-19T05:00:05;8.2;;;5.5;;
34453;SDS011;60061;52.080;5.312;2022-08-19T05:01:42;7.8;;;5.5;;
34453;SDS011;60061;52.080;5.312;2022-08-19T05:04:57;6.8;;;5.4;;
34453;SDS011;60061;52.080;5.312;2022-08-19T05:06:34;8.1;;;5.5;;
34453;SDS011;60061;52.080;5.312;2022-08-19T05:08:12;7.2;;;5.11;;
34453;SDS011;60061;52.080;5.312;2022-08-19T05:11:27;6.1;;;5.0;;
34453;SDS011;60061;52.080;5.312;2022-08-19T05:13:09;9.9;;;5.11;;
34453;SDS011;60061;52.080;5.312;2022-08-19T05:14:49;6.3;;;4.7;;
34453;SDS011;60061;52.080;5.312;2022-08-19T05:16:25;7.1;;;5.5;;
34453;SDS011;60061;52.080;5.312;2022-08-19T05:24:29;7.0;;;5.5;;
34453;SDS011;60061;52.080;5.312;2022-08-19T05:26:06;9.6;;;5.8;;
34453;SDS011;60061;52.080;5.312;2022-08-19T05:27:42;7.5;;;5.2;;
34453;SDS011;60061;52.080;5.312;2022-08-19T05:29:19;5.8;;;4.8;;
34453;SDS011;60061;52.080;5.312;2022-08-19T05:30:57;5.9;;;5.11;;
34453;SDS011;60061;52.080;5.312;2022-08-19T05:34:11;7.1;;;5.3;;
34453;SDS011;60061;52.080;5.312;2022-08-19T05:35:49;7.1;;;5.7;;
34453;SDS011;60061;52.080;5.312;2022-08-19T05:37:27;9.0;;;6.0;;
34453;SDS011;60061;52.080;5.312;2022-08-19T05:40:41;10.5;;;6.2;;
34453;SDS011;60061;52.080;5.312;2022-08-19T05:42:20;10.9;;;6.9;;
34453;SDS011;60061;52.080;5.312;2022-08-19T05:43:57;9.6;;;6.9;;
34453;SDS011;60061;52.080;5.312;2022-08-19T05:45:37;10.21;;;6.6;;
34453;SDS011;60061;52.080;5.312;2022-08-19T05:48:53;8.6;;;6.4;;
34453;SDS011;60061;52.080;5.312;2022-08-19T05:50:30;12.5;;;7.0;;
34453;SDS011;60061;52.080;5.312;2022-08-19T05:52:08;11.0;;;7.4;;
34453;SDS011;60061;52.080;5.312;2022-08-19T05:55:23;12.2;;;8.2;;
34453;SDS011;60061;52.080;5.312;2022-08-19T05:57:00;14.8;;;9.21;;
34453;SDS011;60061;52.080;5.312;2022-08-19T05:58:37;19.11;;;11.9;;
34453;SDS011;60061;52.080;5.312;2022-08-19T06:00:15;18.7;;;11.8;;
34453;SDS011;60061;52.080;5.312;2022-08-19T06:03:32;23.5;;;13.7;;
34453;SDS011;60061;52.080;5.312;2022-08-19T06:05:09;16.5;;;10.4;;
34453;SDS011;60061;52.080;5.312;2022-08-19T06:06:46;18.0;;;9.6;;
34453;SDS011;60061;52.080;5.312;2022-08-19T06:10:02;17.2;;;9.9;;
34453;SDS011;60061;52.080;5.312;2022-08-19T06:11:41;21.2;;;12.5;;
34453;SDS011;60061;52.080;5.312;2022-08-19T06:13:20;27.1;;;16.3;;
34453;SDS011;60061;52.080;5.312;2022-08-19T06:14:57;39.6;;;22.2;;
34453;SDS011;60061;52.080;5.312;2022-08-19T06:18:13;41.9;;;23.5;;
34453;SDS011;60061;52.080;5.312;2022-08-19T06:19:51;44.9;;;25.4;;
34453;SDS011;60061;52.080;5.312;2022-08-19T06:21:28;44.6;;;24.9;;
34453;SDS011;60061;52.080;5.312;2022-08-19T06:23:06;45.9;;;24.4;;
34453;SDS011;60061;52.080;5.312;2022-08-19T06:26:19;43.9;;;24.7;;
34453;SDS011;60061;52.080;5.312;2022-08-19T06:27:57;44.4;;;24.3;;
34453;SDS011;60061;52.080;5.312;2022-08-19T06:29:35;44.0;;;25.1;;
34453;SDS011;60061;52.080;5.312;2022-08-19T06:32:52;48.9;;;25.5;;
34453;SDS011;60061;52.080;5.312;2022-08-19T06:34:30;51.2;;;27.1;;
34453;SDS011;60061;52.080;5.312;2022-08-19T06:36:15;48.7;;;26.2;;
34453;SDS011;60061;52.080;5.312;2022-08-19T06:37:54;44.3;;;25.2;;
34453;SDS011;60061;52.080;5.312;2022-08-19T06:41:14;47.7;;;26.1;;
34453;SDS011;60061;52.080;5.312;2022-08-19T06:42:50;52.1;;;27.3;;
34453;SDS011;60061;52.080;5.312;2022-08-19T06:44:27;52.3;;;27.6;;
34453;SDS011;60061;52.080;5.312;2022-08-19T06:46:11;51.6;;;27.7;;
34453;SDS011;60061;52.080;5.312;2022-08-19T06:49:31;51.2;;;27.6;;
34453;SDS011;60061;52.080;5.312;2022-08-19T06:51:08;53.8;;;29.2;;
34453;SDS011;60061;52.080;5.312;2022-08-19T06:52:44;52.1;;;28.7;;
34453;SDS011;60061;52.080;5.312;2022-08-19T06:56:00;51.1;;;27.7;;
34453;SDS011;60061;52.080;5.312;2022-08-19T06:57:36;55.2;;;29.3;;
34453;SDS011;60061;52.080;5.312;2022-08-19T06:59:13;61.4;;;31.2;;
34453;SDS011;60061;52.080;5.312;2022-08-19T07:01:01;63.1;;;32.21;;
34453;SDS011;60061;52.080;5.312;2022-08-19T07:04:17;66.91;;;32.8;;
34453;SDS011;60061;52.080;5.312;2022-08-19T07:05:56;72.0;;;36.5;;
34453;SDS011;60061;52.080;5.312;2022-08-19T07:07:34;80.11;;;38.71;;
34453;SDS011;60061;52.080;5.312;2022-08-19T07:09:13;77.91;;;37.31;;
34453;SDS011;60061;52.080;5.312;2022-08-19T07:12:29;79.11;;;38.0;;
34453;SDS011;60061;52.080;5.312;2022-08-19T07:14:07;80.5;;;37.31;;
34453;SDS011;60061;52.080;5.312;2022-08-19T07:15:46;84.9;;;39.5;;
34453;SDS011;60061;52.080;5.312;2022-08-19T07:18:59;81.2;;;39.6;;
34453;SDS011;60061;52.080;5.312;2022-08-19T07:20:37;84.9;;;40.9;;
34453;SDS011;60061;52.080;5.312;2022-08-19T07:22:14;85.5;;;41.5;;
34453;SDS011;60061;52.080;5.312;2022-08-19T07:23:51;87.7;;;42.5;;
34453;SDS011;60061;52.080;5.312;2022-08-19T07:27:05;86.2;;;43.9;;
34453;SDS011;60061;52.080;5.312;2022-08-19T07:28:44;92.3;;;44.6;;
34453;SDS011;60061;52.080;5.312;2022-08-19T07:30:23;85.1;;;43.7;;
34453;SDS011;60061;52.080;5.312;2022-08-19T07:33:37;85.1;;;42.3;;
34453;SDS011;60061;52.080;5.312;2022-08-19T07:35:14;84.7;;;42.3;;
34453;SDS011;60061;52.080;5.312;2022-08-19T07:36:50;79.41;;;40.6;;
34453;SDS011;60061;52.080;5.312;2022-08-19T07:38:28;83.9;;;41.1;;
34453;SDS011;60061;52.080;5.312;2022-08-19T07:41:44;79.2;;;39.71;;
34453;SDS011;60061;52.080;5.312;2022-08-19T07:43:25;66.8;;;37.21;;
34453;SDS011;60061;52.080;5.312;2022-08-19T07:45:03;69.61;;;37.21;;
34453;SDS011;60061;52.080;5.312;2022-08-19T07:48:28;66.91;;;35.21;;
34453;SDS011;60061;52.080;5.312;2022-08-19T07:50:07;62.4;;;34.21;;
34453;SDS011;60061;52.080;5.312;2022-08-19T07:51:47;62.2;;;34.0;;
34453;SDS011;60061;52.080;5.312;2022-08-19T07:53:25;61.6;;;33.21;;
34453;SDS011;60061;52.080;5.312;2022-08-19T07:56:42;59.3;;;31.2;;
34453;SDS011;60061;52.080;5.312;2022-08-19T07:58:19;59.3;;;31.2;;
34453;SDS011;60061;52.080;5.312;2022-08-19T07:59:58;59.3;;;32.6;;
34453;SDS011;60061;52.080;5.312;2022-08-19T08:01:35;59.7;;;31.7;;
34453;SDS011;60061;52.080;5.312;2022-08-19T08:09:30;62.4;;;31.8;;
34453;SDS011;60061;52.080;5.312;2022-08-19T08:11:09;54.9;;;30.3;;
34453;SDS011;60061;52.080;5.312;2022-08-19T08:12:45;52.2;;;29.7;;
34453;SDS011;60061;52.080;5.312;2022-08-19T08:14:23;52.8;;;30.5;;
34453;SDS011;60061;52.080;5.312;2022-08-19T08:17:40;49.3;;;28.8;;
34453;SDS011;60061;52.080;5.312;2022-08-19T08:19:18;51.5;;;28.3;;
34453;SDS011;60061;52.080;5.312;2022-08-19T08:20:57;53.3;;;28.9;;
34453;SDS011;60061;52.080;5.312;2022-08-19T08:23:38;51.5;;;29.0;;
34453;SDS011;60061;52.080;5.312;2022-08-19T08:25:15;55.0;;;29.5;;
34453;SDS011;60061;52.080;5.312;2022-08-19T08:26:56;50.3;;;28.6;;
34453;SDS011;60061;52.080;5.312;2022-08-19T08:30:13;49.2;;;27.9;;
34453;SDS011;60061;52.080;5.312;2022-08-19T08:31:53;50.5;;;28.4;;
34453;SDS011;60061;52.080;5.312;2022-08-19T08:33:30;49.1;;;28.1;;
34453;SDS011;60061;52.080;5.312;2022-08-19T08:35:08;48.7;;;28.2;;
34453;SDS011;60061;52.080;5.312;2022-08-19T08:38:25;47.6;;;27.3;;
34453;SDS011;60061;52.080;5.312;2022-08-19T08:40:02;45.6;;;27.9;;
34453;SDS011;60061;52.080;5.312;2022-08-19T08:41:44;43.8;;;26.8;;
34453;SDS011;60061;52.080;5.312;2022-08-19T08:43:33;43.9;;;26.7;;
34453;SDS011;60061;52.080;5.312;2022-08-19T08:46:55;47.1;;;26.1;;
34453;SDS011;60061;52.080;5.312;2022-08-19T08:48:37;41.9;;;25.5;;
34453;SDS011;60061;52.080;5.312;2022-08-19T08:50:21;46.1;;;25.7;;
34453;SDS011;60061;52.080;5.312;2022-08-19T08:52:06;44.6;;;24.5;;
34453;SDS011;60061;52.080;5.312;2022-08-19T08:53:48;43.9;;;24.6;;
34453;SDS011;60061;52.080;5.312;2022-08-19T08:57:07;43.4;;;26.2;;
34453;SDS011;60061;52.080;5.312;2022-08-19T08:58:56;43.6;;;25.8;;
34453;SDS011;60061;52.080;5.312;2022-08-19T09:00:38;43.0;;;25.3;;
34453;SDS011;60061;52.080;5.312;2022-08-19T09:02:20;43.8;;;25.8;;
34453;SDS011;60061;52.080;5.312;2022-08-19T09:05:36;40.6;;;24.4;;
34453;SDS011;60061;52.080;5.312;2022-08-19T09:07:29;45.3;;;25.3;;
34453;SDS011;60061;52.080;5.312;2022-08-19T09:09:32;42.6;;;25.0;;
34453;SDS011;60061;52.080;5.312;2022-08-19T09:11:15;39.31;;;24.4;;
34453;SDS011;60061;52.080;5.312;2022-08-19T09:13:08;38.5;;;24.9;;
34453;SDS011;60061;52.080;5.312;2022-08-19T09:15:02;40.0;;;24.1;;
34453;SDS011;60061;52.080;5.312;2022-08-19T09:18:18;37.31;;;22.7;;
34453;SDS011;60061;52.080;5.312;2022-08-19T09:19:56;40.9;;;24.1;;
34453;SDS011;60061;52.080;5.312;2022-08-19T09:21:35;35.0;;;21.1;;
34453;SDS011;60061;52.080;5.312;2022-08-19T09:23:11;36.71;;;20.7;;
34453;SDS011;60061;52.080;5.312;2022-08-19T09:26:25;33.71;;;20.0;;
34453;SDS011;60061;52.080;5.312;2022-08-19T09:28:03;31.6;;;20.7;;
34453;SDS011;60061;52.080;5.312;2022-08-19T09:29:39;31.0;;;20.0;;
34453;SDS011;60061;52.080;5.312;2022-08-19T09:33:00;34.71;;;21.4;;
34453;SDS011;60061;52.080;5.312;2022-08-19T09:34:37;37.71;;;23.6;;
34453;SDS011;60061;52.080;5.312;2022-08-19T09:36:14;32.0;;;21.0;;
34453;SDS011;60061;52.080;5.312;2022-08-19T09:37:54;33.21;;;21.4;;
34453;SDS011;60061;52.080;5.312;2022-08-19T09:41:07;36.5;;;22.7;;
34453;SDS011;60061;52.080;5.312;2022-08-19T09:42:48;30.1;;;19.41;;
34453;SDS011;60061;52.080;5.312;2022-08-19T09:44:24;31.2;;;21.7;;
34453;SDS011;60061;52.080;5.312;2022-08-19T09:47:38;31.5;;;20.8;;
34453;SDS011;60061;52.080;5.312;2022-08-19T09:49:14;32.4;;;22.3;;
34453;SDS011;60061;52.080;5.312;2022-08-19T09:50:52;32.21;;;21.0;;
34453;SDS011;60061;52.080;5.312;2022-08-19T09:52:28;34.21;;;23.0;;
34453;SDS011;60061;52.080;5.312;2022-08-19T09:55:41;33.5;;;21.8;;
34453;SDS011;60061;52.080;5.312;2022-08-19T09:57:18;34.0;;;23.8;;
34453;SDS011;60061;52.080;5.312;2022-08-19T09:58:54;34.21;;;23.2;;
34453;SDS011;60061;52.080;5.312;2022-08-19T10:02:09;32.71;;;22.2;;
34453;SDS011;60061;52.080;5.312;2022-08-19T10:03:46;33.0;;;22.0;;
34453;SDS011;60061;52.080;5.312;2022-08-19T10:05:57;31.9;;;21.7;;
34453;SDS011;60061;52.080;5.312;2022-08-19T10:07:35;37.81;;;23.6;;
34453;SDS011;60061;52.080;5.312;2022-08-19T10:09:13;37.9;;;25.2;;
34453;SDS011;60061;52.080;5.312;2022-08-19T10:12:27;36.9;;;24.9;;
34453;SDS011;60061;52.080;5.312;2022-08-19T10:14:05;37.6;;;23.8;;
34453;SDS011;60061;52.080;5.312;2022-08-19T10:15:43;39.9;;;27.2;;
34453;SDS011;60061;52.080;5.312;2022-08-19T10:18:56;35.9;;;25.5;;
34453;SDS011;60061;52.080;5.312;2022-08-19T10:20:35;38.71;;;26.2;;
34453;SDS011;60061;52.080;5.312;2022-08-19T10:22:13;40.21;;;27.2;;
34453;SDS011;60061;52.080;5.312;2022-08-19T10:23:53;42.4;;;27.2;;
34453;SDS011;60061;52.080;5.312;2022-08-19T10:27:10;42.9;;;28.8;;
34453;SDS011;60061;52.080;5.312;2022-08-19T10:28:46;44.6;;;28.9;;
34453;SDS011;60061;52.080;5.312;2022-08-19T10:30:23;42.7;;;28.1;;
34453;SDS011;60061;52.080;5.312;2022-08-19T10:33:38;40.6;;;27.5;;
34453;SDS011;60061;52.080;5.312;2022-08-19T10:35:15;39.5;;;26.6;;
34453;SDS011;60061;52.080;5.312;2022-08-19T10:36:52;47.0;;;29.4;;
34453;SDS011;60061;52.080;5.312;2022-08-19T10:38:28;47.6;;;30.2;;
34453;SDS011;60061;52.080;5.312;2022-08-19T10:41:44;47.9;;;31.3;;
34453;SDS011;60061;52.080;5.312;2022-08-19T10:43:20;48.5;;;30.8;;
34453;SDS011;60061;52.080;5.312;2022-08-19T10:44:57;45.4;;;29.9;;
34453;SDS011;60061;52.080;5.312;2022-08-19T10:48:16;46.8;;;31.0;;
34453;SDS011;60061;52.080;5.312;2022-08-19T10:52:46;52.1;;;33.9;;
34453;SDS011;60061;52.080;5.312;2022-08-19T10:56:50;50.4;;;33.0;;
34453;SDS011;60061;52.080;5.312;2022-08-19T10:58:26;49.1;;;32.1;;
34453;SDS011;60061;52.080;5.312;2022-08-19T11:00:03;45.9;;;32.21;;
34453;SDS011;60061;52.080;5.312;2022-08-19T11:01:40;53.3;;;34.4;;
34453;SDS011;60061;52.080;5.312;2022-08-19T11:04:56;46.2;;;30.6;;
34453;SDS011;60061;52.080;5.312;2022-08-19T11:06:32;46.9;;;30.7;;
34453;SDS011;60061;52.080;5.312;2022-08-19T11:08:11;49.0;;;30.2;;
34453;SDS011;60061;52.080;5.312;2022-08-19T11:11:24;47.1;;;32.3;;
34453;SDS011;60061;52.080;5.312;2022-08-19T11:13:00;46.7;;;29.7;;
34453;SDS011;60061;52.080;5.312;2022-08-19T11:14:36;51.8;;;32.71;;
34453;SDS011;60061;52.080;5.312;2022-08-19T11:16:14;47.2;;;32.1;;
34453;SDS011;60061;52.080;5.312;2022-08-19T11:19:31;46.6;;;30.2;;
34453;SDS011;60061;52.080;5.312;2022-08-19T11:21:10;46.9;;;30.4;;
34453;SDS011;60061;52.080;5.312;2022-08-19T11:22:49;49.0;;;31.9;;
34453;SDS011;60061;52.080;5.312;2022-08-19T11:24:27;49.8;;;30.7;;
34453;SDS011;60061;52.080;5.312;2022-08-19T11:27:42;45.8;;;30.5;;
34453;SDS011;60061;52.080;5.312;2022-08-19T11:29:19;47.0;;;30.8;;
34453;SDS011;60061;52.080;5.312;2022-08-19T11:30:57;46.6;;;30.8;;
34453;SDS011;60061;52.080;5.312;2022-08-19T11:34:15;47.3;;;32.0;;
34453;SDS011;60061;52.080;5.312;2022-08-19T11:35:57;42.8;;;28.9;;
34453;SDS011;60061;52.080;5.312;2022-08-19T11:37:37;46.7;;;30.2;;
34453;SDS011;60061;52.080;5.312;2022-08-19T11:39:15;47.4;;;30.4;;
34453;SDS011;60061;52.080;5.312;2022-08-19T11:43:04;43.3;;;30.7;;
34453;SDS011;60061;52.080;5.312;2022-08-19T11:44:40;43.9;;;29.5;;
34453;SDS011;60061;52.080;5.312;2022-08-19T11:46:17;46.6;;;29.4;;
34453;SDS011;60061;52.080;5.312;2022-08-19T11:47:53;45.1;;;28.3;;
34453;SDS011;60061;52.080;5.312;2022-08-19T11:49:31;41.0;;;28.8;;
34453;SDS011;60061;52.080;5.312;2022-08-19T11:52:53;40.6;;;28.1;;
34453;SDS011;60061;52.080;5.312;2022-08-19T11:54:31;42.6;;;30.4;;
34453;SDS011;60061;52.080;5.312;2022-08-19T11:56:08;46.3;;;30.2;;
34453;SDS011;60061;52.080;5.312;2022-08-19T11:59:22;40.0;;;29.0;;
34453;SDS011;60061;52.080;5.312;2022-08-19T12:00:58;40.1;;;29.9;;
34453;SDS011;60061;52.080;5.312;2022-08-19T12:02:35;44.3;;;30.1;;
34453;SDS011;60061;52.080;5.312;2022-08-19T12:04:12;41.3;;;28.9;;
34453;SDS011;60061;52.080;5.312;2022-08-19T12:07:25;38.1;;;27.4;;
34453;SDS011;60061;52.080;5.312;2022-08-19T12:09:03;37.6;;;27.6;;
34453;SDS011;60061;52.080;5.312;2022-08-19T12:10:43;36.71;;;26.9;;
34453;SDS011;60061;52.080;5.312;2022-08-19T12:13:56;37.31;;;29.4;;
34453;SDS011;60061;52.080;5.312;2022-08-19T12:15:34;41.7;;;32.9;;
34453;SDS011;60061;52.080;5.312;2022-08-19T12:17:11;40.4;;;34.1;;
34453;SDS011;60061;52.080;5.312;2022-08-19T12:18:50;38.21;;;30.9;;
34453;SDS011;60061;52.080;5.312;2022-08-19T12:22:05;41.9;;;31.6;;
34453;SDS011;60061;52.080;5.312;2022-08-19T12:23:41;39.31;;;31.2;;
34453;SDS011;60061;52.080;5.312;2022-08-19T12:25:19;35.5;;;27.0;;
34453;SDS011;60061;52.080;5.312;2022-08-19T12:28:33;32.9;;;26.1;;
34453;SDS011;60061;52.080;5.312;2022-08-19T12:30:10;32.3;;;25.0;;
34453;SDS011;60061;52.080;5.312;2022-08-19T12:31:49;29.0;;;22.6;;
34453;SDS011;60061;52.080;5.312;2022-08-19T12:33:27;29.0;;;22.6;;
34453;SDS011;60061;52.080;5.312;2022-08-19T12:36:42;32.1;;;22.7;;
34453;SDS011;60061;52.080;5.312;2022-08-19T12:38:18;29.2;;;21.6;;
34453;SDS011;60061;52.080;5.312;2022-08-19T12:39:56;25.0;;;20.11;;
34453;SDS011;60061;52.080;5.312;2022-08-19T12:43:09;26.8;;;20.7;;
34453;SDS011;60061;52.080;5.312;2022-08-19T12:44:45;31.3;;;21.7;;
34453;SDS011;60061;52.080;5.312;2022-08-19T12:46:21;23.7;;;19.41;;
34453;SDS011;60061;52.080;5.312;2022-08-19T12:49:37;22.4;;;17.91;;
34453;SDS011;60061;52.080;5.312;2022-08-19T12:51:15;24.3;;;18.7;;
34453;SDS011;60061;52.080;5.312;2022-08-19T12:52:53;24.0;;;19.2;;
34453;SDS011;60061;52.080;5.312;2022-08-19T12:54:30;24.0;;;17.5;;
34453;SDS011;60061;52.080;5.312;2022-08-19T12:57:48;21.0;;;16.3;;
34453;SDS011;60061;52.080;5.312;2022-08-19T12:59:25;19.2;;;13.9;;